createdAt,value
2018-12-09T00:00:31.987Z,2.30
2018-12-09T00:01:31.959Z,1.80
2018-12-09T00:02:31.948Z,1.90
2018-12-09T00:03:31.929Z,2.00
2018-12-09T00:04:31.894Z,2.20
2018-12-09T00:05:31.876Z,1.50
2018-12-09T00:06:31.944Z,1.50
2018-12-09T00:07:31.822Z,2.10
2018-12-09T00:08:31.801Z,1.80
2018-12-09T00:09:31.774Z,1.50
2018-12-09T00:10:31.749Z,1.90
2018-12-09T00:11:31.728Z,1.70
2018-12-09T00:12:31.714Z,1.90
2018-12-09T00:13:31.688Z,2.00
2018-12-09T00:14:31.668Z,2.20
2018-12-09T00:15:31.635Z,1.70
2018-12-09T00:16:31.611Z,2.30
2018-12-09T00:17:31.589Z,2.30
2018-12-09T00:18:31.563Z,2.50
2018-12-09T00:19:31.543Z,2.20
2018-12-09T00:20:31.518Z,2.10
2018-12-09T00:21:31.496Z,2.20
2018-12-09T00:22:31.473Z,2.70
2018-12-09T00:23:31.451Z,2.60
2018-12-09T00:24:31.421Z,2.40
2018-12-09T00:25:31.403Z,3.20
2018-12-09T00:26:31.380Z,2.90
2018-12-09T00:27:31.360Z,3.00
2018-12-09T00:28:31.336Z,2.90
2018-12-09T00:29:31.311Z,2.50
2018-12-09T00:30:31.294Z,2.60
2018-12-09T00:31:31.263Z,3.40
2018-12-09T00:32:31.237Z,3.40
2018-12-09T00:33:31.222Z,2.70
2018-12-09T00:34:31.199Z,3.00
2018-12-09T00:35:31.175Z,3.50
2018-12-09T00:36:31.154Z,3.50
2018-12-09T00:37:31.122Z,3.50
2018-12-09T00:38:31.101Z,2.80
2018-12-09T00:39:31.082Z,1.80
2018-12-09T00:40:31.053Z,2.20
2018-12-09T00:41:31.031Z,1.90
2018-12-09T00:42:31.013Z,2.20
2018-12-09T00:43:30.990Z,1.80
2018-12-09T00:44:30.960Z,1.90
2018-12-09T00:45:30.936Z,2.00
2018-12-09T00:46:30.913Z,1.60
2018-12-09T00:47:30.891Z,1.80
2018-12-09T00:48:30.867Z,1.40
2018-12-09T00:49:30.842Z,2.30
2018-12-09T00:50:30.826Z,2.10
2018-12-09T00:51:30.804Z,1.80
2018-12-09T00:52:30.772Z,1.60
2018-12-09T00:53:30.751Z,2.10
2018-12-09T00:54:30.728Z,2.10
2018-12-09T00:55:30.708Z,2.40
2018-12-09T00:56:30.682Z,2.30
2018-12-09T00:57:30.659Z,2.40
2018-12-09T00:58:30.636Z,2.50
2018-12-09T00:59:30.615Z,3.30
2018-12-09T01:00:30.592Z,2.50
2018-12-09T01:01:30.573Z,2.70
2018-12-09T01:02:30.560Z,3.30
2018-12-09T01:03:30.521Z,3.00
2018-12-09T01:04:30.494Z,2.70
2018-12-09T01:05:30.473Z,3.20
2018-12-09T01:06:30.451Z,3.10
2018-12-09T01:07:30.428Z,2.90
2018-12-09T01:08:30.407Z,2.50
2018-12-09T01:09:30.390Z,3.30
2018-12-09T01:10:30.356Z,3.00
2018-12-09T01:11:30.343Z,2.90
2018-12-09T01:12:30.310Z,3.50
2018-12-09T01:13:30.387Z,2.90
2018-12-09T01:14:30.268Z,2.70
2018-12-09T01:15:30.246Z,3.10
2018-12-09T01:16:30.217Z,3.00
2018-12-09T01:17:30.194Z,3.30
2018-12-09T01:18:30.171Z,3.10
2018-12-09T01:19:30.149Z,2.90
2018-12-09T01:20:30.127Z,3.00
2018-12-09T01:21:30.102Z,2.70
2018-12-09T01:22:30.077Z,3.00
2018-12-09T01:23:30.056Z,2.90
2018-12-09T01:24:30.037Z,3.10
2018-12-09T01:25:30.009Z,2.90
2018-12-09T01:26:29.987Z,2.50
2018-12-09T01:27:29.975Z,3.40
2018-12-09T01:28:29.939Z,3.30
2018-12-09T01:29:29.919Z,3.40
2018-12-09T01:30:29.894Z,3.60
2018-12-09T01:31:29.879Z,3.70
2018-12-09T01:32:29.850Z,3.60
2018-12-09T01:33:29.828Z,4.30
2018-12-09T01:34:29.803Z,3.40
2018-12-09T01:35:29.783Z,3.50
2018-12-09T01:36:29.773Z,3.80
2018-12-09T01:37:29.734Z,3.90
2018-12-09T01:38:29.717Z,4.10
2018-12-09T01:39:29.689Z,3.10
2018-12-09T01:40:29.668Z,3.70
2018-12-09T01:41:29.643Z,3.90
2018-12-09T01:42:29.621Z,3.00
2018-12-09T01:43:29.603Z,3.60
2018-12-09T01:44:29.579Z,3.10
2018-12-09T01:45:29.556Z,3.40
2018-12-09T01:46:29.527Z,3.50
2018-12-09T01:47:29.510Z,3.80
2018-12-09T01:48:29.484Z,3.10
2018-12-09T01:49:29.454Z,3.60
2018-12-09T01:50:29.431Z,3.00
2018-12-09T01:51:29.409Z,3.40
2018-12-09T01:52:29.386Z,3.70
2018-12-09T01:53:29.362Z,3.60
2018-12-09T01:54:29.339Z,3.90
2018-12-09T01:55:29.318Z,3.90
2018-12-09T01:56:29.292Z,3.80
2018-12-09T01:57:29.281Z,4.20
2018-12-09T01:58:29.250Z,4.00
2018-12-09T01:59:29.227Z,4.40
2018-12-09T02:00:29.216Z,3.80
2018-12-09T02:01:29.185Z,4.90
2018-12-09T02:02:29.157Z,3.90
2018-12-09T02:03:29.135Z,4.50
2018-12-09T02:04:29.111Z,5.00
2018-12-09T02:05:29.088Z,4.40
2018-12-09T02:06:29.069Z,4.80
2018-12-09T02:07:29.044Z,3.90
2018-12-09T02:08:29.022Z,4.80
2018-12-09T02:09:28.994Z,4.80
2018-12-09T02:10:28.971Z,4.20
2018-12-09T02:11:28.950Z,4.90
2018-12-09T02:12:28.926Z,4.90
2018-12-09T02:13:28.903Z,4.20
2018-12-09T02:14:28.880Z,4.40
2018-12-09T02:15:28.860Z,4.60
2018-12-09T02:16:28.835Z,4.60
2018-12-09T02:17:28.810Z,4.60
2018-12-09T02:18:28.791Z,4.10
2018-12-09T02:19:28.764Z,5.60
2018-12-09T02:20:28.741Z,4.50
2018-12-09T02:21:28.717Z,4.10
2018-12-09T02:22:28.694Z,4.90
2018-12-09T02:23:28.672Z,5.00
2018-12-09T02:24:28.648Z,4.60
2018-12-09T02:25:28.630Z,4.30
2018-12-09T02:26:28.603Z,4.80
2018-12-09T02:27:28.666Z,4.90
2018-12-09T02:28:28.560Z,4.40
2018-12-09T02:29:28.539Z,4.40
2018-12-09T02:30:28.511Z,4.40
2018-12-09T02:31:28.491Z,4.70
2018-12-09T02:32:28.466Z,5.50
2018-12-09T02:33:28.444Z,4.90
2018-12-09T02:34:28.417Z,4.70
2018-12-09T02:35:28.396Z,4.70
2018-12-09T02:36:28.378Z,4.90
2018-12-09T02:37:28.350Z,4.50
2018-12-09T02:38:28.331Z,5.30
2018-12-09T02:39:28.306Z,4.90
2018-12-09T02:40:28.281Z,5.10
2018-12-09T02:41:28.265Z,5.10
2018-12-09T02:42:28.237Z,5.30
2018-12-09T02:43:28.216Z,5.10
2018-12-09T02:44:28.281Z,5.90
2018-12-09T02:45:28.168Z,5.50
2018-12-09T02:46:28.156Z,6.10
2018-12-09T02:47:28.129Z,6.40
2018-12-09T02:48:28.101Z,5.20
2018-12-09T02:49:28.075Z,5.60
2018-12-09T02:50:28.053Z,6.30
2018-12-09T02:51:28.032Z,5.90
2018-12-09T02:52:28.008Z,5.60
2018-12-09T02:53:27.982Z,4.90
2018-12-09T02:54:27.959Z,4.50
2018-12-09T02:55:27.941Z,5.70
2018-12-09T02:56:27.911Z,5.70
2018-12-09T02:57:27.892Z,6.00
2018-12-09T02:58:27.871Z,5.60
2018-12-09T02:59:27.849Z,5.70
2018-12-09T03:00:27.821Z,5.40
2018-12-09T03:01:27.797Z,5.70
2018-12-09T03:02:27.776Z,5.50
2018-12-09T03:03:27.759Z,5.50
2018-12-09T03:04:27.731Z,5.80
2018-12-09T03:05:27.709Z,5.90
2018-12-09T03:06:27.685Z,6.20
2018-12-09T03:07:27.662Z,5.60
2018-12-09T03:08:27.639Z,6.00
2018-12-09T03:09:27.621Z,5.40
2018-12-09T03:10:27.594Z,5.70
2018-12-09T03:11:27.571Z,5.60
2018-12-09T03:12:27.547Z,4.70
2018-12-09T03:13:27.529Z,5.00
2018-12-09T03:14:27.508Z,5.10
2018-12-09T03:15:27.484Z,4.70
2018-12-09T03:16:27.462Z,4.40
2018-12-09T03:17:27.438Z,4.20
2018-12-09T03:18:27.410Z,4.70
2018-12-09T03:19:27.388Z,4.90
2018-12-09T03:20:27.366Z,4.60
2018-12-09T03:21:27.343Z,4.90
2018-12-09T03:22:27.323Z,4.80
2018-12-09T03:23:27.301Z,4.80
2018-12-09T03:24:27.272Z,4.70
2018-12-09T03:25:27.254Z,5.00
2018-12-09T03:26:27.227Z,5.00
2018-12-09T03:27:27.215Z,5.00
2018-12-09T03:28:27.184Z,5.10
2018-12-09T03:29:27.164Z,4.30
2018-12-09T03:30:27.138Z,5.10
2018-12-09T03:31:27.124Z,5.30
2018-12-09T03:32:27.091Z,4.60
2018-12-09T03:33:27.072Z,5.20
2018-12-09T03:34:27.057Z,4.40
2018-12-09T03:35:27.171Z,4.80
2018-12-09T03:36:26.995Z,5.00
2018-12-09T03:37:26.982Z,5.00
2018-12-09T03:38:26.961Z,4.80
2018-12-09T03:39:26.927Z,4.70
2018-12-09T03:40:26.903Z,5.10
2018-12-09T03:41:26.882Z,5.70
2018-12-09T03:42:26.859Z,4.40
2018-12-09T03:43:26.834Z,5.80
2018-12-09T03:44:26.813Z,5.90
2018-12-09T03:45:26.790Z,5.20
2018-12-09T03:46:26.767Z,6.10
2018-12-09T03:47:26.746Z,5.80
2018-12-09T03:48:26.723Z,5.20
2018-12-09T03:49:26.707Z,6.90
2018-12-09T03:50:26.674Z,6.30
2018-12-09T03:51:26.651Z,5.80
2018-12-09T03:52:26.626Z,5.60
2018-12-09T03:53:26.605Z,5.60
2018-12-09T03:54:26.581Z,5.30
2018-12-09T03:55:26.562Z,5.50
2018-12-09T03:56:26.537Z,6.30
2018-12-09T03:57:26.511Z,6.10
2018-12-09T03:58:26.489Z,4.80
2018-12-09T03:59:26.471Z,5.30
2018-12-09T04:00:26.455Z,4.90
2018-12-09T04:01:26.419Z,5.20
2018-12-09T04:02:26.396Z,4.70
2018-12-09T04:03:26.376Z,5.60
2018-12-09T04:04:26.351Z,5.00
2018-12-09T04:05:26.337Z,4.90
2018-12-09T04:06:26.306Z,5.30
2018-12-09T04:07:26.282Z,5.10
2018-12-09T04:08:26.264Z,5.00
2018-12-09T04:09:26.237Z,5.20
2018-12-09T04:10:26.214Z,5.70
2018-12-09T04:11:26.189Z,5.40
2018-12-09T04:12:26.166Z,6.20
2018-12-09T04:13:26.143Z,5.70
2018-12-09T04:14:26.127Z,5.80
2018-12-09T04:15:26.101Z,6.40
2018-12-09T04:16:26.077Z,5.90
2018-12-09T04:17:26.051Z,5.30
2018-12-09T04:18:26.029Z,5.40
2018-12-09T04:19:26.008Z,6.40
2018-12-09T04:20:25.980Z,6.10
2018-12-09T04:21:25.959Z,6.00
2018-12-09T04:22:25.936Z,5.20
2018-12-09T04:23:25.923Z,6.50
2018-12-09T04:24:25.890Z,5.70
2018-12-09T04:25:25.871Z,5.90
2018-12-09T04:26:25.843Z,5.50
2018-12-09T04:27:25.824Z,5.80
2018-12-09T04:28:25.801Z,5.40
2018-12-09T04:29:25.859Z,5.40
2018-12-09T04:30:25.756Z,5.80
2018-12-09T04:31:25.732Z,5.40
2018-12-09T04:32:25.710Z,5.20
2018-12-09T04:33:25.694Z,5.70
2018-12-09T04:34:25.662Z,5.80
2018-12-09T04:35:25.637Z,5.20
2018-12-09T04:36:25.622Z,5.10
2018-12-09T04:37:25.590Z,4.80
2018-12-09T04:38:25.568Z,4.70
2018-12-09T04:39:25.545Z,6.00
2018-12-09T04:40:25.524Z,5.30
2018-12-09T04:41:25.500Z,5.50
2018-12-09T04:42:25.476Z,5.60
2018-12-09T04:43:25.459Z,5.00
2018-12-09T04:44:25.448Z,5.30
2018-12-09T04:45:25.411Z,4.40
2018-12-09T04:46:25.389Z,5.90
2018-12-09T04:47:25.361Z,4.50
2018-12-09T04:48:25.339Z,4.60
2018-12-09T04:49:25.348Z,5.00
2018-12-09T04:50:25.291Z,5.30
2018-12-09T04:51:25.268Z,4.40
2018-12-09T04:52:25.256Z,4.20
2018-12-09T04:53:25.223Z,5.10
2018-12-09T04:54:25.249Z,5.20
2018-12-09T04:55:25.178Z,5.10
2018-12-09T04:56:25.158Z,5.50
2018-12-09T04:57:25.130Z,4.90
2018-12-09T04:58:25.107Z,4.80
2018-12-09T04:59:25.090Z,5.00
2018-12-09T05:00:25.065Z,5.40
2018-12-09T05:01:25.039Z,5.10
2018-12-09T05:02:25.021Z,4.40
2018-12-09T05:03:24.994Z,4.70
2018-12-09T05:04:24.971Z,5.10
2018-12-09T05:05:24.950Z,5.50
2018-12-09T05:06:24.934Z,5.90
2018-12-09T05:07:24.904Z,5.20
2018-12-09T05:08:24.890Z,4.70
2018-12-09T05:09:24.857Z,5.90
2018-12-09T05:10:24.834Z,4.60
2018-12-09T05:11:24.814Z,5.30
2018-12-09T05:12:24.787Z,5.00
2018-12-09T05:13:24.770Z,5.10
2018-12-09T05:14:24.743Z,5.20
2018-12-09T05:15:24.733Z,5.30
2018-12-09T05:16:24.698Z,5.00
2018-12-09T05:17:24.674Z,5.50
2018-12-09T05:18:24.653Z,5.60
2018-12-09T05:19:24.626Z,5.50
2018-12-09T05:20:24.605Z,5.70
2018-12-09T05:21:24.580Z,5.30
2018-12-09T05:22:24.559Z,4.30
2018-12-09T05:23:24.534Z,4.80
2018-12-09T05:24:24.511Z,4.90
2018-12-09T05:25:24.490Z,5.30
2018-12-09T05:26:24.466Z,5.00
2018-12-09T05:27:24.445Z,5.30
2018-12-09T05:28:24.421Z,4.80
2018-12-09T05:29:24.397Z,5.80
2018-12-09T05:30:24.375Z,4.90
2018-12-09T05:31:24.353Z,4.90
2018-12-09T05:32:24.337Z,4.80
2018-12-09T05:33:24.307Z,4.40
2018-12-09T05:34:24.284Z,4.10
2018-12-09T05:35:24.258Z,4.60
2018-12-09T05:36:24.235Z,4.40
2018-12-09T05:37:24.214Z,5.30
2018-12-09T05:38:24.194Z,5.00
2018-12-09T05:39:24.169Z,4.40
2018-12-09T05:40:24.143Z,4.90
2018-12-09T05:41:24.121Z,4.70
2018-12-09T05:42:24.098Z,5.10
2018-12-09T05:43:24.076Z,5.20
2018-12-09T05:44:24.052Z,4.40
2018-12-09T05:45:24.035Z,4.20
2018-12-09T05:46:24.013Z,4.60
2018-12-09T05:47:23.985Z,4.50
2018-12-09T05:48:23.962Z,5.00
2018-12-09T05:49:23.937Z,4.40
2018-12-09T05:50:23.917Z,3.80
2018-12-09T05:51:23.897Z,4.00
2018-12-09T05:52:23.870Z,4.20
2018-12-09T05:53:23.848Z,4.50
2018-12-09T05:54:23.824Z,3.50
2018-12-09T05:55:23.803Z,4.10
2018-12-09T05:56:23.790Z,4.40
2018-12-09T05:57:23.759Z,4.00
2018-12-09T05:58:23.735Z,4.20
2018-12-09T05:59:23.710Z,4.40
2018-12-09T06:00:23.686Z,4.10
2018-12-09T06:01:23.668Z,4.80
2018-12-09T06:02:23.641Z,3.80
2018-12-09T06:03:23.620Z,4.00
2018-12-09T06:04:23.595Z,4.60
2018-12-09T06:05:23.573Z,4.30
2018-12-09T06:06:23.552Z,3.90
2018-12-09T06:07:23.527Z,4.50
2018-12-09T06:08:23.502Z,4.30
2018-12-09T06:09:23.482Z,4.40
2018-12-09T06:10:23.458Z,4.10
2018-12-09T06:11:23.435Z,3.90
2018-12-09T06:12:23.415Z,4.30
2018-12-09T06:13:23.390Z,3.70
2018-12-09T06:14:23.364Z,4.10
2018-12-09T06:15:23.363Z,4.00
2018-12-09T06:16:23.320Z,4.50
2018-12-09T06:17:23.297Z,3.80
2018-12-09T06:18:23.275Z,4.30
2018-12-09T06:19:23.251Z,4.40
2018-12-09T06:20:23.231Z,4.10
2018-12-09T06:21:23.206Z,4.80
2018-12-09T06:22:23.181Z,4.50
2018-12-09T06:23:23.159Z,5.60
2018-12-09T06:24:23.136Z,4.30
2018-12-09T06:25:23.113Z,5.10
2018-12-09T06:26:23.091Z,4.70
2018-12-09T06:27:23.069Z,5.20
2018-12-09T06:28:23.043Z,5.00
2018-12-09T06:29:23.028Z,4.90
2018-12-09T06:30:22.999Z,5.80
2018-12-09T06:31:22.976Z,6.00
2018-12-09T06:32:22.995Z,16.70
2018-12-09T06:33:22.928Z,13.10
2018-12-09T06:34:22.907Z,12.30
2018-12-09T06:35:22.884Z,25.50
2018-12-09T06:36:22.860Z,18.90
2018-12-09T06:37:22.846Z,15.90
2018-12-09T06:38:22.814Z,12.30
2018-12-09T06:39:22.791Z,10.00
2018-12-09T06:40:22.767Z,28.40
2018-12-09T06:41:22.749Z,10.60
2018-12-09T06:42:22.731Z,9.50
2018-12-09T06:43:22.703Z,8.00
2018-12-09T06:44:22.678Z,6.80
2018-12-09T06:45:22.656Z,7.00
2018-12-09T06:46:22.632Z,7.20
2018-12-09T06:47:22.612Z,5.20
2018-12-09T06:48:22.586Z,5.20
2018-12-09T06:49:22.568Z,4.60
2018-12-09T06:50:22.541Z,4.30
2018-12-09T06:51:22.520Z,5.20
2018-12-09T06:52:22.496Z,5.20
2018-12-09T06:53:22.480Z,5.10
2018-12-09T06:54:22.449Z,4.60
2018-12-09T06:55:22.435Z,3.80
2018-12-09T06:56:22.406Z,5.60
2018-12-09T06:57:22.384Z,4.90
2018-12-09T06:58:22.458Z,4.30
2018-12-09T06:59:22.336Z,5.70
2018-12-09T07:00:22.313Z,4.60
2018-12-09T07:01:22.288Z,5.00
2018-12-09T07:02:22.268Z,6.70
2018-12-09T07:03:22.245Z,4.40
2018-12-09T07:04:22.217Z,5.00
2018-12-09T07:05:22.206Z,3.40
2018-12-09T07:06:22.174Z,3.90
2018-12-09T07:07:22.149Z,4.10
2018-12-09T07:08:22.126Z,4.40
2018-12-09T07:09:22.112Z,3.30
2018-12-09T07:10:22.080Z,3.50
2018-12-09T07:11:22.060Z,3.70
2018-12-09T07:12:22.034Z,3.10
2018-12-09T07:13:22.012Z,3.00
2018-12-09T07:14:21.988Z,2.60
2018-12-09T07:15:21.970Z,3.40
2018-12-09T07:16:21.943Z,3.60
2018-12-09T07:17:21.921Z,2.90
2018-12-09T07:18:21.897Z,2.70
2018-12-09T07:19:21.873Z,2.80
2018-12-09T07:20:21.848Z,3.30
2018-12-09T07:21:21.828Z,3.40
2018-12-09T07:22:21.810Z,3.60
2018-12-09T07:23:21.783Z,3.20
2018-12-09T07:24:21.757Z,3.10
2018-12-09T07:25:21.735Z,3.00
2018-12-09T07:26:21.714Z,3.30
2018-12-09T07:27:21.703Z,4.00
2018-12-09T07:28:21.666Z,3.50
2018-12-09T07:29:21.643Z,3.90
2018-12-09T07:30:21.621Z,3.40
2018-12-09T07:31:21.600Z,3.70
2018-12-09T07:32:21.580Z,3.20
2018-12-09T07:33:21.551Z,3.20
2018-12-09T07:34:21.538Z,3.70
2018-12-09T07:35:21.509Z,3.20
2018-12-09T07:36:21.488Z,2.50
2018-12-09T07:37:21.461Z,2.80
2018-12-09T07:38:21.437Z,2.70
2018-12-09T07:39:21.415Z,2.80
2018-12-09T07:40:21.391Z,3.30
2018-12-09T07:41:21.370Z,3.10
2018-12-09T07:42:21.351Z,2.20
2018-12-09T07:43:21.322Z,2.90
2018-12-09T07:44:21.304Z,2.90
2018-12-09T07:45:21.279Z,3.80
2018-12-09T07:46:21.254Z,3.40
2018-12-09T07:47:21.229Z,2.50
2018-12-09T07:48:21.204Z,2.50
2018-12-09T07:49:21.186Z,3.30
2018-12-09T07:50:21.161Z,3.40
2018-12-09T07:51:21.146Z,3.50
2018-12-09T07:52:21.116Z,3.80
2018-12-09T07:53:21.096Z,3.90
2018-12-09T07:54:21.069Z,3.30
2018-12-09T07:55:21.043Z,4.30
2018-12-09T07:56:21.021Z,4.90
2018-12-09T07:57:21.003Z,4.10
2018-12-09T07:58:20.975Z,4.00
2018-12-09T07:59:20.956Z,4.10
2018-12-09T08:00:20.930Z,4.20
2018-12-09T08:01:20.909Z,4.60
2018-12-09T08:02:20.889Z,4.90
2018-12-09T08:03:20.863Z,4.70
2018-12-09T08:04:20.861Z,4.20
2018-12-09T08:05:20.818Z,4.60
2018-12-09T08:06:20.791Z,4.00
2018-12-09T08:07:20.769Z,4.50
2018-12-09T08:08:20.745Z,4.40
2018-12-09T08:09:20.726Z,4.20
2018-12-09T08:10:20.705Z,4.00
2018-12-09T08:11:20.686Z,4.10
2018-12-09T08:12:20.654Z,4.20
2018-12-09T08:13:20.630Z,4.10
2018-12-09T08:14:20.610Z,4.00
2018-12-09T08:15:20.588Z,3.80
2018-12-09T08:16:20.560Z,3.70
2018-12-09T08:17:20.538Z,3.60
2018-12-09T08:18:20.515Z,3.10
2018-12-09T08:19:20.496Z,3.60
2018-12-09T08:20:20.468Z,2.80
2018-12-09T08:21:20.450Z,2.90
2018-12-09T08:22:20.428Z,2.50
2018-12-09T08:23:20.412Z,2.60
2018-12-09T08:24:20.380Z,2.10
2018-12-09T08:25:20.357Z,2.10
2018-12-09T08:26:20.330Z,2.30
2018-12-09T08:27:20.306Z,2.40
2018-12-09T08:28:20.292Z,2.60
2018-12-09T08:29:20.260Z,2.10
2018-12-09T08:30:20.242Z,1.50
2018-12-09T08:31:20.225Z,1.70
2018-12-09T08:32:20.193Z,1.80
2018-12-09T08:33:20.173Z,1.50
2018-12-09T08:34:20.145Z,1.50
2018-12-09T08:35:20.125Z,1.70
2018-12-09T08:36:20.099Z,1.60
2018-12-09T08:37:20.082Z,1.70
2018-12-09T08:38:20.056Z,2.30
2018-12-09T08:39:20.032Z,1.50
2018-12-09T08:40:20.012Z,1.60
2018-12-09T08:41:19.980Z,1.10
2018-12-09T08:42:19.959Z,2.20
2018-12-09T08:43:19.943Z,2.20
2018-12-09T08:44:19.910Z,1.70
2018-12-09T08:45:19.891Z,2.60
2018-12-09T08:46:19.961Z,4.10
2018-12-09T08:47:19.842Z,3.70
2018-12-09T08:48:19.816Z,15.30
2018-12-09T08:49:19.794Z,15.10
2018-12-09T08:50:19.770Z,8.20
2018-12-09T08:51:19.747Z,2.40
2018-12-09T08:52:19.725Z,2.10
2018-12-09T08:53:19.705Z,2.00
2018-12-09T08:54:19.692Z,7.30
2018-12-09T08:55:19.654Z,4.30
2018-12-09T08:56:19.630Z,6.10
2018-12-09T08:57:19.614Z,4.20
2018-12-09T08:58:19.584Z,1.80
2018-12-09T08:59:19.561Z,1.60
2018-12-09T09:00:19.536Z,1.80
2018-12-09T09:01:19.513Z,1.90
2018-12-09T09:02:19.490Z,1.70
2018-12-09T09:03:19.482Z,1.30
2018-12-09T09:04:19.451Z,1.10
2018-12-09T09:05:19.428Z,1.10
2018-12-09T09:06:19.404Z,1.30
2018-12-09T09:07:19.374Z,0.90
2018-12-09T09:08:19.360Z,0.80
2018-12-09T09:09:19.328Z,1.30
2018-12-09T09:10:19.305Z,1.20
2018-12-09T09:11:19.287Z,1.80
2018-12-09T09:12:19.256Z,1.40
2018-12-09T09:13:19.241Z,1.10
2018-12-09T09:14:19.209Z,1.00
2018-12-09T09:15:19.185Z,1.50
2018-12-09T09:16:19.169Z,0.80
2018-12-09T09:17:19.138Z,1.40
2018-12-09T09:18:19.127Z,1.10
2018-12-09T09:19:19.096Z,1.20
2018-12-09T09:20:19.078Z,1.10
2018-12-09T09:21:19.050Z,1.10
2018-12-09T09:22:19.025Z,0.90
2018-12-09T09:23:19.000Z,1.20
2018-12-09T09:24:18.978Z,0.80
2018-12-09T09:25:18.953Z,1.00
2018-12-09T09:26:18.929Z,0.80
2018-12-09T09:27:18.908Z,0.90
2018-12-09T09:28:18.882Z,0.90
2018-12-09T09:29:18.859Z,1.00
2018-12-09T09:30:18.848Z,1.40
2018-12-09T09:31:18.810Z,0.80
2018-12-09T09:32:18.788Z,0.90
2018-12-09T09:33:18.775Z,0.80
2018-12-09T09:34:18.753Z,0.70
2018-12-09T09:35:18.719Z,0.80
2018-12-09T09:36:18.697Z,0.80
2018-12-09T09:37:18.673Z,1.00
2018-12-09T09:38:18.652Z,0.90
2018-12-09T09:39:18.626Z,1.00
2018-12-09T09:40:18.607Z,0.90
2018-12-09T09:41:18.583Z,1.20
2018-12-09T09:42:18.558Z,1.00
2018-12-09T09:43:18.540Z,1.00
2018-12-09T09:44:18.517Z,1.30
2018-12-09T09:45:18.482Z,1.30
2018-12-09T09:46:18.459Z,1.00
2018-12-09T09:47:18.439Z,1.40
2018-12-09T09:48:18.413Z,0.90
2018-12-09T09:49:18.389Z,1.00
2018-12-09T09:50:18.366Z,0.90
2018-12-09T09:51:18.343Z,1.10
2018-12-09T09:52:18.320Z,7.80
2018-12-09T09:53:18.295Z,3.50
2018-12-09T09:54:18.272Z,1.90
2018-12-09T09:55:18.261Z,1.20
2018-12-09T09:56:18.240Z,1.00
2018-12-09T09:57:18.222Z,1.40
2018-12-09T09:58:18.177Z,1.30
2018-12-09T09:59:18.155Z,1.70
2018-12-09T10:00:18.151Z,1.30
2018-12-09T10:01:18.116Z,1.40
2018-12-09T10:02:18.085Z,1.10
2018-12-09T10:03:25.684Z,1.40
2018-12-09T10:04:18.037Z,1.10
2018-12-09T10:05:18.022Z,0.80
2018-12-09T10:06:17.989Z,1.40
2018-12-09T10:07:17.969Z,1.50
2018-12-09T10:08:17.949Z,1.30
2018-12-09T10:09:17.924Z,1.00
2018-12-09T10:10:17.897Z,1.20
2018-12-09T10:11:17.874Z,1.40
2018-12-09T10:12:17.870Z,1.30
2018-12-09T10:13:17.839Z,1.20
2018-12-09T10:14:17.804Z,1.10
2018-12-09T10:15:17.788Z,1.40
2018-12-09T10:16:17.762Z,1.20
2018-12-09T10:17:17.734Z,1.50
2018-12-09T10:18:17.716Z,1.40
2018-12-09T10:19:17.698Z,1.40
2018-12-09T10:20:17.676Z,0.90
2018-12-09T10:21:17.666Z,1.40
2018-12-09T10:22:17.619Z,1.10
2018-12-09T10:23:17.597Z,1.20
2018-12-09T10:24:17.571Z,1.30
2018-12-09T10:25:17.549Z,1.30
2018-12-09T10:26:17.548Z,2.30
2018-12-09T10:27:17.504Z,1.60
2018-12-09T10:28:17.478Z,1.10
2018-12-09T10:29:17.450Z,1.00
2018-12-09T10:30:17.431Z,1.50
2018-12-09T10:31:17.404Z,1.50
2018-12-09T10:32:17.381Z,1.30
2018-12-09T10:33:17.365Z,2.00
2018-12-09T10:34:17.332Z,1.40
2018-12-09T10:35:17.312Z,1.70
2018-12-09T10:36:17.289Z,1.10
2018-12-09T10:37:17.263Z,1.70
2018-12-09T10:38:17.245Z,1.40
2018-12-09T10:39:17.235Z,1.00
2018-12-09T10:40:17.204Z,1.00
2018-12-09T10:41:17.176Z,1.10
2018-12-09T10:42:17.146Z,0.90
2018-12-09T10:43:17.123Z,1.00
2018-12-09T10:44:17.099Z,1.00
2018-12-09T10:45:17.077Z,0.90
2018-12-09T10:46:17.052Z,1.00
2018-12-09T10:47:17.031Z,0.90
2018-12-09T10:48:17.009Z,0.90
2018-12-09T10:49:16.981Z,0.90
2018-12-09T10:50:16.959Z,1.00
2018-12-09T10:51:16.935Z,1.10
2018-12-09T10:52:16.913Z,1.20
2018-12-09T10:53:16.890Z,0.80
2018-12-09T10:54:16.865Z,1.00
2018-12-09T10:55:16.846Z,1.00
2018-12-09T10:56:16.821Z,1.00
2018-12-09T10:57:16.796Z,1.00
2018-12-09T10:58:16.776Z,1.10
2018-12-09T10:59:16.750Z,0.80
2018-12-09T11:00:16.738Z,1.10
2018-12-09T11:01:16.715Z,1.20
2018-12-09T11:02:16.679Z,1.10
2018-12-09T11:03:16.663Z,1.20
2018-12-09T11:04:16.631Z,1.10
2018-12-09T11:05:16.624Z,0.90
2018-12-09T11:06:16.599Z,1.00
2018-12-09T11:07:16.567Z,1.20
2018-12-09T11:08:16.805Z,1.00
2018-12-09T11:09:16.522Z,0.70
2018-12-09T11:10:16.491Z,0.80
2018-12-09T11:11:16.473Z,1.00
2018-12-09T11:12:16.453Z,1.10
2018-12-09T11:13:16.421Z,1.00
2018-12-09T11:14:16.404Z,0.90
2018-12-09T11:15:16.382Z,1.00
2018-12-09T11:16:16.352Z,1.10
2018-12-09T11:17:16.328Z,1.00
2018-12-09T11:18:16.309Z,1.30
2018-12-09T11:19:16.283Z,1.20
2018-12-09T11:20:16.260Z,1.00
2018-12-09T11:21:16.239Z,0.90
2018-12-09T11:22:16.223Z,0.90
2018-12-09T11:23:16.196Z,1.00
2018-12-09T11:24:16.175Z,0.90
2018-12-09T11:25:16.146Z,1.00
2018-12-09T11:26:16.124Z,1.00
2018-12-09T11:27:16.105Z,1.40
2018-12-09T11:28:16.086Z,1.30
2018-12-09T11:29:16.057Z,1.10
2018-12-09T11:30:16.035Z,1.20
2018-12-09T11:31:16.012Z,1.00
2018-12-09T11:32:15.991Z,1.20
2018-12-09T11:33:15.977Z,1.10
2018-12-09T11:34:15.937Z,1.10
2018-12-09T11:35:15.915Z,1.30
2018-12-09T11:36:15.894Z,2.20
2018-12-09T11:37:15.864Z,5.10
2018-12-09T11:38:15.846Z,3.00
2018-12-09T11:39:15.820Z,2.80
2018-12-09T11:40:15.803Z,3.40
2018-12-09T11:41:15.774Z,2.10
2018-12-09T11:42:15.755Z,2.10
2018-12-09T11:43:15.727Z,2.20
2018-12-09T11:44:15.712Z,1.60
2018-12-09T11:45:15.694Z,1.90
2018-12-09T11:46:15.659Z,1.60
2018-12-09T11:47:15.633Z,3.20
2018-12-09T11:48:15.611Z,1.70
2018-12-09T11:49:15.587Z,2.20
2018-12-09T11:50:15.565Z,2.80
2018-12-09T11:51:15.547Z,1.90
2018-12-09T11:52:15.524Z,2.20
2018-12-09T11:53:15.500Z,2.60
2018-12-09T11:54:15.492Z,5.60
2018-12-09T11:55:15.453Z,3.20
2018-12-09T11:56:15.430Z,2.10
2018-12-09T11:57:15.416Z,2.40
2018-12-09T11:58:15.386Z,2.60
2018-12-09T11:59:15.359Z,3.90
2018-12-09T12:00:15.334Z,2.50
2018-12-09T12:01:15.322Z,2.20
2018-12-09T12:02:20.073Z,4.80
2018-12-09T12:03:15.266Z,2.40
2018-12-09T12:04:15.245Z,4.00
2018-12-09T12:05:15.218Z,3.60
2018-12-09T12:06:15.198Z,2.60
2018-12-09T12:07:15.173Z,6.30
2018-12-09T12:08:15.149Z,4.10
2018-12-09T12:09:15.130Z,6.00
2018-12-09T12:10:15.112Z,2.70
2018-12-09T12:11:15.086Z,4.70
2018-12-09T12:12:15.058Z,3.70
2018-12-09T12:13:15.029Z,4.00
2018-12-09T12:14:15.008Z,4.40
2018-12-09T12:15:14.985Z,3.90
2018-12-09T12:16:14.968Z,4.00
2018-12-09T12:17:14.950Z,3.60
2018-12-09T12:18:14.920Z,2.70
2018-12-09T12:19:14.894Z,4.10
2018-12-09T12:20:14.872Z,3.20
2018-12-09T12:21:14.863Z,3.10
2018-12-09T12:22:14.828Z,3.60
2018-12-09T12:23:14.820Z,4.10
2018-12-09T12:24:14.781Z,4.20
2018-12-09T12:25:14.762Z,4.30
2018-12-09T12:26:14.742Z,5.00
2018-12-09T12:27:14.714Z,4.10
2018-12-09T12:28:14.687Z,3.20
2018-12-09T12:29:14.670Z,3.10
2018-12-09T12:30:14.649Z,3.50
2018-12-09T12:31:14.624Z,2.90
2018-12-09T12:32:14.600Z,3.10
2018-12-09T12:33:14.570Z,2.80
2018-12-09T12:34:14.554Z,3.20
2018-12-09T12:35:14.533Z,3.00
2018-12-09T12:36:14.518Z,3.00
2018-12-09T12:37:14.480Z,2.90
2018-12-09T12:38:14.463Z,3.10
2018-12-09T12:39:14.445Z,2.80
2018-12-09T12:40:14.411Z,3.60
2018-12-09T12:41:14.388Z,3.50
2018-12-09T12:42:14.365Z,3.60
2018-12-09T12:43:14.346Z,2.90
2018-12-09T12:44:14.321Z,3.10
2018-12-09T12:45:14.298Z,2.80
2018-12-09T12:46:14.273Z,3.20
2018-12-09T12:47:14.259Z,3.00
2018-12-09T12:48:14.246Z,3.40
2018-12-09T12:49:14.211Z,2.80
2018-12-09T12:50:14.184Z,2.80
2018-12-09T12:51:14.161Z,2.80
2018-12-09T12:52:14.138Z,3.40
2018-12-09T12:53:14.115Z,3.60
2018-12-09T12:54:14.109Z,3.20
2018-12-09T12:55:14.074Z,3.10
2018-12-09T12:56:14.052Z,2.80
2018-12-09T12:57:14.029Z,3.60
2018-12-09T12:58:14.000Z,3.20
2018-12-09T12:59:13.981Z,3.30
2018-12-09T13:00:13.965Z,2.80
2018-12-09T13:01:13.946Z,2.90
2018-12-09T13:02:13.911Z,2.40
2018-12-09T13:03:13.902Z,3.70
2018-12-09T13:04:13.865Z,2.80
2018-12-09T13:05:13.852Z,2.80
2018-12-09T13:06:13.823Z,2.70
2018-12-09T13:07:13.793Z,2.70
2018-12-09T13:08:13.775Z,2.70
2018-12-09T13:09:13.753Z,3.10
2018-12-09T13:10:13.732Z,2.90
2018-12-09T13:11:13.716Z,2.30
2018-12-09T13:12:13.685Z,2.60
2018-12-09T13:13:13.659Z,2.40
2018-12-09T13:14:13.638Z,3.00
2018-12-09T13:15:13.612Z,3.10
2018-12-09T13:16:13.591Z,2.30
2018-12-09T13:17:13.568Z,2.50
2018-12-09T13:18:13.548Z,2.70